Time;durP1;ratioP1;P1;durP2;ratioP2;P2;SDS_P1;SDS_P2;PMS_P1;PMS_P2;Temp;Humidity;BMP_temperature;BMP_pressure;BME280_temperature;BME280_humidity;BME280_pressure;Samples;Min_cycle;Max_cycle;Signal;HPM_P1;HPM_P2
2023/08/04 00:02:19;;;;;;;0.00;0.00;;;16.20;100.00;;;;;;5016066;28;20456;-80
2023/08/04 00:04:46;;;;;;;0.00;0.00;;;16.20;100.00;;;;;;5017612;28;20430;-80
2023/08/04 00:07:13;;;;;;;0.00;0.00;;;16.20;100.00;;;;;;5002741;28;20054;-79
2023/08/04 00:09:40;;;;;;;0.00;0.00;;;16.30;100.00;;;;;;5005337;28;20470;-79
2023/08/04 00:12:07;;;;;;;0.00;0.00;;;16.30;100.00;;;;;;4997468;28;20065;-81
2023/08/04 00:14:34;;;;;;;0.00;0.00;;;16.30;100.00;;;;;;5040749;23;20065;-80
2023/08/04 00:17:01;;;;;;;0.00;0.00;;;16.30;100.00;;;;;;5045761;28;20042;-80
2023/08/04 00:19:28;;;;;;;0.00;0.00;;;16.30;100.00;;;;;;5028787;28;20050;-81
2023/08/04 00:21:55;;;;;;;0.00;0.00;;;16.30;100.00;;;;;;5046216;28;20626;-80
2023/08/04 00:24:22;;;;;;;0.00;0.00;;;16.30;100.00;;;;;;5030670;28;20077;-80
2023/08/04 00:26:49;;;;;;;0.00;0.00;;;16.40;100.00;;;;;;5029722;28;20053;-81
2023/08/04 00:29:16;;;;;;;0.00;0.00;;;16.40;100.00;;;;;;5028218;28;20053;-80
2023/08/04 00:31:42;;;;;;;0.00;0.00;;;16.40;100.00;;;;;;5027229;28;20056;-80
2023/08/04 00:34:09;;;;;;;0.00;0.00;;;16.40;100.00;;;;;;5044450;28;20053;-80
2023/08/04 00:36:36;;;;;;;0.00;0.00;;;16.40;100.00;;;;;;5028775;28;20132;-80
2023/08/04 00:39:03;;;;;;;0.00;0.00;;;16.40;100.00;;;;;;5038610;28;20042;-80
2023/08/04 00:41:30;;;;;;;0.00;0.00;;;16.40;100.00;;;;;;5022739;28;20042;-80
2023/08/04 00:43:57;;;;;;;0.00;0.00;;;16.40;100.00;;;;;;5041283;28;20088;-81
2023/08/04 00:46:26;;;;;;;0.00;0.00;;;16.40;100.00;;;;;;5029886;28;20064;-81
2023/08/04 00:48:53;;;;;;;0.00;0.00;;;16.40;100.00;;;;;;5023938;28;20049;-81
2023/08/04 00:51:20;;;;;;;0.00;0.00;;;16.40;100.00;;;;;;5025314;28;20522;-80
2023/08/04 00:53:47;;;;;;;0.00;0.00;;;16.40;100.00;;;;;;5023210;28;20796;-81
2023/08/04 00:56:14;;;;;;;0.00;0.00;;;16.40;100.00;;;;;;5024390;28;20136;-80
2023/08/04 00:58:42;;;;;;;0.00;0.00;;;16.40;100.00;;;;;;5042938;28;20049;-81
2023/08/04 01:01:08;;;;;;;0.00;0.00;;;16.40;100.00;;;;;;5041480;28;20850;-81
2023/08/04 01:03:38;;;;;;;0.00;0.00;;;16.50;100.00;;;;;;5041882;28;20803;-80
2023/08/04 01:06:31;;;;;;;0.00;0.00;;;16.50;100.00;;;;;;5040061;28;20163;-81
2023/08/04 01:09:13;;;;;;;0.00;0.00;;;16.50;100.00;;;;;;5020001;28;20073;-81
2023/08/04 01:11:50;;;;;;;0.00;0.00;;;16.50;100.00;;;;;;5020240;28;20073;-80
2023/08/04 01:14:18;;;;;;;0.00;0.00;;;16.50;100.00;;;;;;5025593;28;20141;-81
2023/08/04 01:16:46;;;;;;;0.00;0.00;;;16.50;100.00;;;;;;5042310;28;20190;-81
2023/08/04 01:19:13;;;;;;;0.00;0.00;;;16.50;100.00;;;;;;5029441;28;20054;-80
2023/08/04 01:21:43;;;;;;;0.00;0.00;;;16.50;100.00;;;;;;5028989;28;20069;-81
2023/08/04 01:24:10;;;;;;;0.00;0.00;;;16.50;100.00;;;;;;5039431;28;20072;-81
2023/08/04 01:26:41;;;;;;;0.00;0.00;;;16.40;100.00;;;;;;5021008;28;20058;-80
2023/08/04 01:29:10;;;;;;;0.00;0.00;;;16.40;100.00;;;;;;5036060;28;20499;-80
2023/08/04 01:31:38;;;;;;;0.00;0.00;;;16.50;100.00;;;;;;5028789;28;20383;-80
2023/08/04 01:34:05;;;;;;;0.00;0.00;;;16.40;100.00;;;;;;5024585;28;20085;-80
2023/08/04 01:36:32;;;;;;;0.00;0.00;;;16.40;100.00;;;;;;5032209;28;20049;-80
2023/08/04 01:39:00;;;;;;;0.00;0.00;;;16.40;100.00;;;;;;5044532;28;20065;-80
2023/08/04 01:41:27;;;;;;;0.00;0.00;;;16.40;100.00;;;;;;5033983;28;20060;-80
2023/08/04 01:43:54;;;;;;;0.00;0.00;;;16.40;100.00;;;;;;5028673;28;20413;-80
2023/08/04 01:46:21;;;;;;;0.00;0.00;;;16.40;100.00;;;;;;5044473;28;20053;-80
2023/08/04 01:48:47;;;;;;;0.00;0.00;;;16.40;100.00;;;;;;5044785;28;20058;-81
2023/08/04 01:51:14;;;;;;;0.00;0.00;;;16.40;100.00;;;;;;5028811;28;20144;-81
2023/08/04 01:53:41;;;;;;;0.00;0.00;;;16.40;100.00;;;;;;5028360;28;20164;-80
2023/08/04 01:56:08;;;;;;;0.00;0.00;;;16.40;100.00;;;;;;5037994;28;20045;-81
2023/08/04 01:58:35;;;;;;;0.00;0.00;;;16.40;100.00;;;;;;5027544;28;20057;-81
2023/08/04 02:01:02;;;;;;;0.00;0.00;;;16.40;100.00;;;;;;5034989;28;20677;-81
2023/08/04 02:03:28;;;;;;;0.00;0.00;;;16.30;100.00;;;;;;5049803;28;20850;-81
2023/08/04 02:05:55;;;;;;;0.00;0.00;;;16.30;100.00;;;;;;5044791;28;20061;-81
2023/08/04 02:08:22;;;;;;;0.00;0.00;;;16.30;100.00;;;;;;5023429;28;20052;-81
2023/08/04 02:10:49;;;;;;;0.00;0.00;;;16.30;100.00;;;;;;5032030;28;20107;-81
2023/08/04 02:13:16;;;;;;;0.00;0.00;;;16.30;100.00;;;;;;5048731;28;20764;-81
2023/08/04 02:15:43;;;;;;;0.00;0.00;;;16.30;100.00;;;;;;5043687;28;20042;-81
2023/08/04 02:18:10;;;;;;;0.00;0.00;;;16.30;100.00;;;;;;5043383;28;20050;-81
2023/08/04 02:20:37;;;;;;;0.00;0.00;;;16.30;100.00;;;;;;5042673;28;20048;-81
2023/08/04 02:23:04;;;;;;;0.00;0.00;;;16.30;100.00;;;;;;5033000;28;20139;-81
2023/08/04 02:25:31;;;;;;;0.00;0.00;;;16.30;100.00;;;;;;5054316;28;20068;-81
2023/08/04 02:28:02;;;;;;;0.00;0.00;;;16.30;100.00;;;;;;5021413;28;20053;-81
2023/08/04 02:30:33;;;;;;;0.00;0.00;;;16.30;100.00;;;;;;5048645;28;20054;-80
2023/08/04 02:33:00;;;;;;;0.00;0.00;;;16.30;100.00;;;;;;5043514;28;20053;-80
2023/08/04 02:35:27;;;;;;;0.00;0.00;;;16.30;100.00;;;;;;5035863;28;20049;-80
2023/08/04 02:37:53;;;;;;;0.00;0.00;;;16.30;100.00;;;;;;5041036;28;20088;-80
2023/08/04 02:40:21;;;;;;;0.00;0.00;;;16.30;100.00;;;;;;5030658;28;20077;-80
2023/08/04 02:42:48;;;;;;;0.00;0.00;;;16.30;100.00;;;;;;5020918;28;20061;-80
2023/08/04 02:45:15;;;;;;;0.00;0.00;;;16.30;100.00;;;;;;5041758;28;20053;-80
2023/08/04 02:47:41;;;;;;;0.00;0.00;;;16.30;100.00;;;;;;5041739;28;20920;-80
2023/08/04 02:53:23;;;;;;;0.00;0.00;;;16.30;100.00;;;;;;5019564;28;20136;-78
2023/08/04 02:55:50;;;;;;;0.00;0.00;;;16.20;100.00;;;;;;5043322;28;20148;-78
2023/08/04 02:58:17;;;;;;;0.00;0.00;;;16.20;100.00;;;;;;5041484;28;20053;-78
2023/08/04 03:00:44;;;;;;;0.00;0.00;;;16.20;100.00;;;;;;5025976;28;20073;-80
2023/08/04 03:03:11;;;;;;;0.00;0.00;;;16.20;100.00;;;;;;5024885;28;20132;-79
2023/08/04 03:05:38;;;;;;;0.00;0.00;;;16.20;100.00;;;;;;5027959;28;20494;-79
2023/08/04 03:08:05;;;;;;;0.00;0.00;;;16.20;100.00;;;;;;5020806;28;20050;-79
2023/08/04 03:10:31;;;;;;;0.00;0.00;;;16.20;100.00;;;;;;5023503;28;20073;-79
2023/08/04 03:12:58;;;;;;;0.00;0.00;;;16.10;100.00;;;;;;5027407;28;20518;-79
2023/08/04 03:15:25;;;;;;;0.00;0.00;;;16.10;100.00;;;;;;5041619;28;20045;-78
2023/08/04 03:17:52;;;;;;;0.00;0.00;;;16.10;100.00;;;;;;5026733;28;20073;-79
2023/08/04 03:20:19;;;;;;;0.00;0.00;;;16.10;100.00;;;;;;5025008;28;20050;-78
2023/08/04 03:22:46;;;;;;;0.00;0.00;;;16.10;100.00;;;;;;5025550;28;20050;-79
2023/08/04 03:25:12;;;;;;;0.00;0.00;;;16.10;100.00;;;;;;5040237;28;20148;-78
2023/08/04 03:27:39;;;;;;;0.00;0.00;;;16.10;100.00;;;;;;5041706;28;20646;-78
2023/08/04 03:30:07;;;;;;;0.00;0.00;;;16.10;100.00;;;;;;5041153;28;20057;-78
2023/08/04 03:32:34;;;;;;;0.00;0.00;;;16.10;100.00;;;;;;5025125;28;20045;-79
2023/08/04 03:35:00;;;;;;;0.00;0.00;;;16.10;100.00;;;;;;5025688;28;20053;-78
2023/08/04 03:37:27;;;;;;;0.00;0.00;;;16.00;100.00;;;;;;5023646;28;20081;-79
2023/08/04 03:39:54;;;;;;;0.00;0.00;;;16.00;100.00;;;;;;5025116;28;20045;-78
2023/08/04 03:42:21;;;;;;;0.00;0.00;;;16.00;100.00;;;;;;5043719;28;20058;-79
2023/08/04 03:44:48;;;;;;;0.00;0.00;;;16.00;100.00;;;;;;5025263;28;20053;-78
2023/08/04 03:47:15;;;;;;;0.00;0.00;;;15.90;100.00;;;;;;5021097;28;20081;-78
2023/08/04 03:49:42;;;;;;;0.00;0.00;;;15.90;100.00;;;;;;5019606;28;20656;-78
2023/08/04 03:52:08;;;;;;;0.00;0.00;;;15.90;100.00;;;;;;5024792;28;20055;-78
2023/08/04 03:54:35;;;;;;;0.00;0.00;;;15.90;100.00;;;;;;5037035;28;20097;-78
2023/08/04 03:57:03;;;;;;;0.00;0.00;;;15.80;100.00;;;;;;5021094;28;20669;-78
2023/08/04 03:59:29;;;;;;;0.00;0.00;;;15.80;100.00;;;;;;5027181;28;20132;-78
2023/08/04 04:01:56;;;;;;;0.00;0.00;;;15.80;100.00;;;;;;5024813;28;20115;-78
2023/08/04 04:04:23;;;;;;;0.00;0.00;;;15.80;100.00;;;;;;5025022;28;20685;-78
2023/08/04 04:09:43;;;;;;;0.00;0.00;;;15.80;100.00;;;;;;5015490;28;20057;-80
2023/08/04 04:12:10;;;;;;;0.00;0.00;;;15.70;100.00;;;;;;5035176;28;20926;-81
2023/08/04 04:14:43;;;;;;;0.00;0.00;;;15.70;100.00;;;;;;5026909;28;20440;-79
2023/08/04 04:17:10;;;;;;;0.00;0.00;;;15.60;100.00;;;;;;5023232;28;20057;-78
2023/08/04 04:19:36;;;;;;;0.00;0.00;;;15.60;100.00;;;;;;5022806;28;20056;-79
2023/08/04 04:22:04;;;;;;;0.00;0.00;;;15.60;100.00;;;;;;5042582;28;20128;-78
2023/08/04 04:24:30;;;;;;;0.00;0.00;;;15.60;100.00;;;;;;5031331;28;20487;-79
2023/08/04 04:26:57;;;;;;;0.00;0.00;;;15.70;100.00;;;;;;5036841;28;20132;-80
2023/08/04 04:29:34;;;;;;;0.00;0.00;;;15.60;100.00;;;;;;5032145;28;20057;-78
2023/08/04 04:32:02;;;;;;;0.00;0.00;;;15.60;100.00;;;;;;5017773;28;20053;-84
2023/08/04 04:34:28;;;;;;;0.00;0.00;;;15.60;100.00;;;;;;5035596;28;20080;-82
2023/08/04 04:36:57;;;;;;;0.00;0.00;;;15.70;100.00;;;;;;5030148;28;20128;-84
2023/08/04 04:39:25;;;;;;;0.00;0.00;;;15.70;100.00;;;;;;5030313;28;20131;-83
2023/08/04 04:41:52;;;;;;;0.00;0.00;;;15.70;100.00;;;;;;5030291;28;20056;-84
2023/08/04 04:44:19;;;;;;;0.00;0.00;;;15.70;100.00;;;;;;5030622;28;20759;-84
2023/08/04 04:46:46;;;;;;;0.00;0.00;;;15.60;100.00;;;;;;5031383;28;20653;-84
2023/08/04 04:49:14;;;;;;;0.00;0.00;;;15.70;100.00;;;;;;5052565;22;20049;-80
2023/08/04 04:51:41;;;;;;;0.00;0.00;;;15.70;100.00;;;;;;5021601;28;20046;-80
2023/08/04 04:54:07;;;;;;;0.00;0.00;;;15.70;100.00;;;;;;5010841;28;20050;-79
2023/08/04 04:56:34;;;;;;;0.00;0.00;;;15.60;100.00;;;;;;5016748;28;20148;-79
2023/08/04 04:59:01;;;;;;;0.00;0.00;;;15.60;100.00;;;;;;5028648;28;20077;-79
2023/08/04 05:01:28;;;;;;;0.00;0.00;;;15.60;100.00;;;;;;5036131;28;20068;-80
2023/08/04 05:03:55;;;;;;;0.00;0.00;;;15.60;100.00;;;;;;5022948;28;20050;-79
2023/08/04 05:06:22;;;;;;;0.00;0.00;;;15.60;100.00;;;;;;5040827;28;20049;-80
2023/08/04 05:08:49;;;;;;;0.00;0.00;;;15.50;100.00;;;;;;5034634;28;20112;-79
2023/08/04 05:11:16;;;;;;;0.00;0.00;;;15.50;100.00;;;;;;5026774;28;20099;-80
2023/08/04 05:13:43;;;;;;;0.00;0.00;;;15.50;100.00;;;;;;5027407;28;20054;-79
2023/08/04 05:16:10;;;;;;;0.00;0.00;;;15.50;100.00;;;;;;5038326;28;20057;-80
2023/08/04 05:18:37;;;;;;;0.00;0.00;;;15.50;100.00;;;;;;5033840;23;20398;-82
2023/08/04 05:21:04;;;;;;;0.00;0.00;;;15.50;100.00;;;;;;5010189;28;20164;-84
2023/08/04 05:23:31;;;;;;;0.00;0.00;;;15.50;100.00;;;;;;5008188;28;20840;-84
2023/08/04 05:25:58;;;;;;;0.00;0.00;;;15.50;100.00;;;;;;5003751;28;20077;-88
2023/08/04 05:28:30;;;;;;;0.00;0.00;;;15.60;100.00;;;;;;5007687;28;20058;-84
2023/08/04 05:30:59;;;;;;;0.00;0.00;;;15.70;100.00;;;;;;5003342;28;20098;-86
2023/08/04 05:33:27;;;;;;;0.00;0.00;;;15.70;100.00;;;;;;5005707;28;20053;-88
2023/08/04 05:35:54;;;;;;;0.00;0.00;;;15.80;100.00;;;;;;5009826;28;20049;-85
2023/08/04 05:38:22;;;;;;;0.00;0.00;;;15.90;100.00;;;;;;4988608;28;20755;-85
2023/08/04 05:40:49;;;;;;;0.00;0.00;;;16.00;100.00;;;;;;5007861;28;20044;-85
2023/08/04 05:43:17;;;;;;;0.00;0.00;;;16.00;100.00;;;;;;5007191;28;20054;-85
2023/08/04 05:45:47;;;;;;;0.00;0.00;;;16.10;100.00;;;;;;5017722;28;20045;-84
2023/08/04 05:48:14;;;;;;;0.00;0.00;;;16.30;100.00;;;;;;5011288;28;20073;-84
2023/08/04 05:50:41;;;;;;;0.00;0.00;;;16.30;100.00;;;;;;5013131;28;20053;-84
2023/08/04 05:53:09;;;;;;;0.00;0.00;;;16.30;100.00;;;;;;5019171;28;20072;-85
2023/08/04 05:55:37;;;;;;;0.00;0.00;;;16.30;100.00;;;;;;5010062;28;20038;-85
2023/08/04 05:58:04;;;;;;;0.00;0.00;;;16.20;100.00;;;;;;5009187;28;20256;-85
2023/08/04 06:00:32;;;;;;;0.00;0.00;;;16.30;100.00;;;;;;5009497;28;20062;-85
2023/08/04 06:02:59;;;;;;;0.00;0.00;;;16.30;100.00;;;;;;4995347;28;20136;-87
2023/08/04 06:05:27;;;;;;;0.00;0.00;;;16.30;100.00;;;;;;5000580;28;20132;-85
2023/08/04 06:07:54;;;;;;;0.00;0.00;;;16.40;100.00;;;;;;5011917;28;20058;-85
2023/08/04 06:10:22;;;;;;;0.00;0.00;;;16.50;100.00;;;;;;5005563;28;20065;-86
2023/08/04 06:12:49;;;;;;;0.00;0.00;;;16.60;100.00;;;;;;5006773;28;20405;-85
2023/08/04 06:15:16;;;;;;;0.00;0.00;;;16.70;100.00;;;;;;5008881;28;20076;-85
2023/08/04 06:17:44;;;;;;;0.00;0.00;;;17.00;100.00;;;;;;5012688;28;20133;-85
2023/08/04 06:20:11;;;;;;;0.30;0.30;;;17.20;100.00;;;;;;5015270;28;20054;-85
2023/08/04 06:22:38;;;;;;;0.00;0.00;;;17.20;100.00;;;;;;5013881;28;20045;-85
2023/08/04 06:25:05;;;;;;;0.00;0.00;;;17.30;100.00;;;;;;5013263;28;20054;-84
2023/08/04 06:27:33;;;;;;;0.00;0.00;;;17.50;100.00;;;;;;5008057;28;20057;-86
2023/08/04 06:30:00;;;;;;;0.00;0.00;;;17.80;100.00;;;;;;5007614;28;20053;-85
2023/08/04 06:32:28;;;;;;;0.00;0.00;;;17.90;100.00;;;;;;5024585;28;20042;-85
2023/08/04 06:34:55;;;;;;;0.00;0.00;;;18.10;100.00;;;;;;5005031;28;20047;-84
2023/08/04 06:37:23;;;;;;;0.00;0.00;;;18.40;99.90;;;;;;5016390;28;20050;-85
2023/08/04 06:39:52;;;;;;;0.00;0.00;;;18.50;97.60;;;;;;5020505;28;20045;-85
2023/08/04 06:42:19;;;;;;;0.00;0.00;;;18.40;97.30;;;;;;5013241;28;20054;-85
2023/08/04 06:44:46;;;;;;;0.00;0.00;;;18.60;95.00;;;;;;5006067;28;20050;-84
2023/08/04 06:47:13;;;;;;;0.00;0.00;;;18.60;94.50;;;;;;5008267;28;20074;-85
2023/08/04 06:49:42;;;;;;;0.00;0.00;;;18.80;94.60;;;;;;5013953;28;20536;-86
2023/08/04 06:52:09;;;;;;;0.00;0.00;;;19.10;90.20;;;;;;5000539;28;20700;-85
2023/08/04 06:54:37;;;;;;;0.00;0.00;;;19.30;91.40;;;;;;5011152;28;20046;-86
2023/08/04 06:57:05;;;;;;;0.00;0.00;;;19.40;91.30;;;;;;5013379;28;20251;-85
2023/08/04 06:59:32;;;;;;;0.00;0.00;;;19.30;92.50;;;;;;5006202;28;20498;-86
2023/08/04 07:01:59;;;;;;;0.00;0.00;;;19.70;91.40;;;;;;5006288;28;20584;-86
2023/08/04 07:04:26;;;;;;;0.10;0.10;;;20.50;87.10;;;;;;5006771;28;20907;-85
2023/08/04 07:06:56;;;;;;;0.00;0.00;;;20.60;84.70;;;;;;5008723;28;20045;-86
2023/08/04 07:09:23;;;;;;;0.00;0.00;;;20.20;83.80;;;;;;5009371;28;20146;-85
2023/08/04 07:11:50;;;;;;;0.00;0.00;;;20.50;86.30;;;;;;5007582;28;20134;-85
2023/08/04 07:14:16;;;;;;;0.00;0.00;;;21.70;82.20;;;;;;4996276;28;20050;-86
2023/08/04 07:16:46;;;;;;;0.00;0.00;;;22.50;79.60;;;;;;5011348;28;20049;-85
2023/08/04 07:19:14;;;;;;;0.00;0.00;;;23.10;77.60;;;;;;4991069;28;20380;-85
2023/08/04 07:21:42;;;;;;;0.00;0.00;;;23.60;75.40;;;;;;5009530;28;20518;-85
2023/08/04 07:24:09;;;;;;;0.47;0.47;;;23.00;76.50;;;;;;5014636;28;20092;-85
2023/08/04 07:26:36;;;;;;;0.00;0.00;;;22.60;74.30;;;;;;5013628;28;20057;-85
2023/08/04 07:29:03;;;;;;;0.00;0.00;;;22.70;76.40;;;;;;5006248;28;20200;-86
2023/08/04 07:31:31;;;;;;;0.00;0.00;;;22.60;74.40;;;;;;5011644;28;20050;-85
2023/08/04 07:33:59;;;;;;;0.00;0.00;;;22.10;75.20;;;;;;5011079;28;20052;-85
2023/08/04 07:36:26;;;;;;;0.10;0.10;;;21.90;78.80;;;;;;5011202;28;20050;-85
2023/08/04 07:38:54;;;;;;;0.00;0.00;;;22.10;77.90;;;;;;4986966;28;20046;-85
2023/08/04 07:41:23;;;;;;;0.00;0.00;;;22.20;80.10;;;;;;4996480;28;20109;-85
2023/08/04 07:43:50;;;;;;;0.00;0.00;;;22.20;75.60;;;;;;5008784;28;20053;-84
2023/08/04 07:46:25;;;;;;;0.00;0.00;;;22.20;76.30;;;;;;5008396;28;20112;-82
2023/08/04 07:48:53;;;;;;;0.00;0.00;;;22.70;73.70;;;;;;5016109;28;20058;-83
2023/08/04 07:51:20;;;;;;;0.00;0.00;;;22.30;74.50;;;;;;4991390;28;20046;-83
2023/08/04 07:53:48;;;;;;;0.00;0.00;;;22.00;75.10;;;;;;5001782;28;20049;-82
2023/08/04 07:56:15;;;;;;;0.00;0.00;;;21.80;76.20;;;;;;4999777;28;20556;-84
2023/08/04 07:58:42;;;;;;;0.00;0.00;;;21.70;75.90;;;;;;5010398;28;20053;-84
2023/08/04 08:01:09;;;;;;;0.00;0.00;;;21.30;78.90;;;;;;5012198;28;20096;-83
2023/08/04 08:03:36;;;;;;;0.00;0.00;;;21.70;80.80;;;;;;5010826;28;20773;-83
2023/08/04 08:06:04;;;;;;;0.00;0.00;;;22.20;74.00;;;;;;4987665;28;20054;-83
2023/08/04 08:08:31;;;;;;;0.00;0.00;;;21.50;75.40;;;;;;5000461;28;20886;-83
2023/08/04 08:11:02;;;;;;;0.00;0.00;;;21.30;77.80;;;;;;5006120;28;20058;-84
2023/08/04 08:13:28;;;;;;;0.00;0.00;;;21.00;78.40;;;;;;4999624;28;20105;-83
2023/08/04 08:15:57;;;;;;;0.00;0.00;;;20.80;78.60;;;;;;5005756;28;20054;-83
2023/08/04 08:18:24;;;;;;;0.00;0.00;;;20.60;80.70;;;;;;4995203;28;20084;-83
2023/08/04 08:20:51;;;;;;;0.00;0.00;;;21.20;81.90;;;;;;5011357;28;20053;-83
2023/08/04 08:23:18;;;;;;;0.00;0.00;;;21.90;76.40;;;;;;5007188;28;20652;-84
2023/08/04 08:25:45;;;;;;;0.00;0.00;;;22.60;74.80;;;;;;5007568;28;20077;-84
2023/08/04 08:28:12;;;;;;;0.00;0.00;;;22.90;71.60;;;;;;5010968;28;20139;-84
2023/08/04 08:33:48;;;;;;;0.00;0.00;;;23.80;69.20;;;;;;4946936;28;20051;-84
2023/08/04 08:36:17;;;;;;;0.00;0.00;;;23.90;66.40;;;;;;4959104;28;20121;-82
2023/08/04 08:38:45;;;;;;;0.00;0.00;;;24.50;65.70;;;;;;4953953;28;20066;-82
2023/08/04 08:41:13;;;;;;;0.00;0.00;;;24.70;64.20;;;;;;4967252;28;20059;-82
2023/08/04 08:43:40;;;;;;;0.00;0.00;;;24.50;63.80;;;;;;4967117;28;20504;-83
2023/08/04 08:46:07;;;;;;;0.00;0.00;;;24.50;63.40;;;;;;4957415;28;20053;-82
2023/08/04 08:48:38;;;;;;;0.00;0.00;;;24.00;65.20;;;;;;4951937;28;20137;-83
2023/08/04 08:51:12;;;;;;;0.00;0.00;;;24.00;66.70;;;;;;4967694;28;20496;-83
2023/08/04 08:53:41;;;;;;;0.00;0.00;;;24.10;65.00;;;;;;4952238;28;20110;-83
2023/08/04 08:56:09;;;;;;;0.00;0.00;;;23.60;67.10;;;;;;4952613;28;20051;-84
2023/08/04 08:58:36;;;;;;;0.00;0.00;;;23.80;65.00;;;;;;4966560;28;20130;-83
2023/08/04 09:01:03;;;;;;;0.00;0.00;;;24.00;65.80;;;;;;4951524;28;20054;-83
2023/08/04 09:03:30;;;;;;;0.00;0.00;;;23.90;63.00;;;;;;4949539;28;20062;-83
2023/08/04 09:05:57;;;;;;;0.00;0.00;;;23.90;66.30;;;;;;4964571;28;20051;-82
2023/08/04 09:08:24;;;;;;;0.00;0.00;;;23.90;65.20;;;;;;4965825;23;20051;-84
2023/08/04 09:10:51;;;;;;;0.00;0.00;;;23.70;63.10;;;;;;4963495;28;20082;-84
2023/08/04 09:13:18;;;;;;;0.15;0.15;;;23.00;65.70;;;;;;4961832;28;20077;-82
2023/08/04 09:15:53;;;;;;;0.00;0.00;;;22.40;66.60;;;;;;4972779;28;20389;-82
2023/08/04 09:18:31;;;;;;;0.00;0.00;;;21.90;67.80;;;;;;4972582;28;20448;-83
2023/08/04 09:21:00;;;;;;;0.05;0.05;;;21.60;68.50;;;;;;4970503;28;20074;-83
2023/08/04 09:23:30;;;;;;;5.00;2.22;;;21.40;70.60;;;;;;4954832;28;20417;-83
2023/08/04 09:25:57;;;;;;;9.57;2.38;;;21.00;71.40;;;;;;4954886;28;20051;-83
2023/08/04 09:28:26;;;;;;;47.38;2.50;;;20.70;71.50;;;;;;4975932;28;20085;-83
2023/08/04 09:31:19;;;;;;;8.82;2.30;;;20.50;74.30;;;;;;4969820;28;20161;-86
2023/08/04 09:33:46;;;;;;;3.92;1.75;;;20.50;74.20;;;;;;4967917;28;20133;-83
2023/08/04 09:36:17;;;;;;;6.38;1.75;;;20.40;72.60;;;;;;4971772;28;20456;-82
2023/08/04 09:38:44;;;;;;;7.00;1.88;;;20.40;73.90;;;;;;4970281;28;20054;-83
2023/08/04 09:41:13;;;;;;;4.28;1.52;;;20.50;74.70;;;;;;4951051;28;20051;-83
2023/08/04 09:43:48;;;;;;;7.22;1.98;;;20.50;74.60;;;;;;4951699;28;20067;-85
2023/08/04 09:46:19;;;;;;;8.88;1.98;;;20.70;74.50;;;;;;4974932;28;20137;-83
2023/08/04 09:48:47;;;;;;;7.60;2.10;;;20.90;77.70;;;;;;4964623;28;20059;-83
2023/08/04 09:51:16;;;;;;;21.60;3.28;;;21.20;75.90;;;;;;4971797;28;20487;-83
2023/08/04 09:53:44;;;;;;;10.90;2.47;;;21.30;76.70;;;;;;4963628;28;20062;-83
2023/08/04 09:56:13;;;;;;;6.45;2.03;;;21.40;74.20;;;;;;4954424;28;20130;-83
2023/08/04 09:58:42;;;;;;;9.32;1.98;;;21.40;75.00;;;;;;4954241;28;20132;-84
2023/08/04 10:01:09;;;;;;;5.18;1.80;;;21.60;74.40;;;;;;4952867;28;20125;-83
2023/08/04 10:03:40;;;;;;;11.63;2.00;;;21.50;73.20;;;;;;4970443;28;20623;-83
2023/08/04 10:09:39;;;;;;;6.60;1.83;;;21.70;73.20;;;;;;4988515;28;20050;-82
2023/08/04 10:12:07;;;;;;;5.45;1.70;;;22.00;74.30;;;;;;4977991;28;20152;-83
2023/08/04 10:14:34;;;;;;;7.95;2.00;;;22.70;70.50;;;;;;4988906;28;20133;-83
2023/08/04 10:17:02;;;;;;;7.25;1.92;;;24.00;72.80;;;;;;4975670;28;20127;-85
2023/08/04 10:19:29;;;;;;;4.72;1.60;;;25.60;69.80;;;;;;4990173;28;20515;-84
2023/08/04 10:22:12;;;;;;;4.20;1.58;;;26.20;65.90;;;;;;4981378;28;20046;-84
2023/08/04 10:24:42;;;;;;;4.63;1.90;;;26.60;64.00;;;;;;4989128;28;20116;-84
2023/08/04 10:27:28;;;;;;;11.43;1.60;;;27.50;59.50;;;;;;4990492;28;20077;-84
2023/08/04 10:30:11;;;;;;;10.02;1.60;;;28.10;57.40;;;;;;4990713;28;20137;-85
2023/08/04 10:36:03;;;;;;;4.50;1.42;;;28.50;56.50;;;;;;4949099;29;20063;-81
2023/08/04 10:38:54;;;;;;;4.18;1.45;;;28.30;55.20;;;;;;4944281;28;20142;-81
2023/08/04 10:41:21;;;;;;;4.32;1.40;;;28.30;52.80;;;;;;4951448;28;20641;-81
2023/08/04 10:44:00;;;;;;;5.15;1.40;;;27.90;54.30;;;;;;4952381;28;20047;-81
2023/08/04 10:46:27;;;;;;;5.70;1.35;;;26.60;58.50;;;;;;4953407;28;20075;-80
2023/08/04 10:48:54;;;;;;;6.25;1.58;;;26.10;59.80;;;;;;4969505;28;20154;-80
2023/08/04 10:51:25;;;;;;;6.18;1.60;;;25.80;59.90;;;;;;4975845;28;20046;-80
2023/08/04 10:57:37;;;;;;;5.50;1.58;;;24.50;63.00;;;;;;5006610;28;20050;-80
2023/08/04 11:00:06;;;;;;;3.90;1.20;;;23.70;63.50;;;;;;5023667;28;20058;-80
2023/08/04 11:02:34;;;;;;;2.83;1.30;;;23.50;65.00;;;;;;5013564;28;20057;-80
2023/08/04 11:05:05;;;;;;;5.20;1.30;;;23.40;63.80;;;;;;5023689;28;20045;-80
2023/08/04 11:07:34;;;;;;;1.98;1.27;;;23.30;66.80;;;;;;5023426;28;20053;-80
2023/08/04 11:10:07;;;;;;;5.60;1.60;;;23.40;66.90;;;;;;5014426;28;20050;-80
2023/08/04 11:12:36;;;;;;;11.88;1.75;;;23.40;64.90;;;;;;5002703;28;20054;-80
2023/08/04 11:15:03;;;;;;;7.05;1.80;;;23.20;64.30;;;;;;5023939;28;20391;-81
2023/08/04 11:17:30;;;;;;;5.78;1.42;;;23.50;68.00;;;;;;5007630;28;20318;-81
2023/08/04 11:19:57;;;;;;;8.50;1.38;;;23.60;67.10;;;;;;5007503;28;20118;-80
2023/08/04 11:22:25;;;;;;;5.65;1.45;;;24.40;66.20;;;;;;5007611;28;20057;-81
2023/08/04 11:24:52;;;;;;;4.13;1.35;;;24.50;63.60;;;;;;5007760;28;20144;-81
2023/08/04 11:27:20;;;;;;;3.25;1.33;;;24.50;61.10;;;;;;5007368;28;20826;-80
2023/08/04 11:29:54;;;;;;;7.32;1.50;;;24.00;62.50;;;;;;5023688;28;20657;-80
2023/08/04 11:32:25;;;;;;;6.90;1.58;;;23.60;62.90;;;;;;5008820;28;20053;-81
2023/08/04 11:34:55;;;;;;;10.93;2.22;;;23.30;65.30;;;;;;5007314;28;20049;-80
2023/08/04 11:37:23;;;;;;;4.25;1.80;;;23.10;65.80;;;;;;5023805;28;20050;-81
2023/08/04 11:39:50;;;;;;;4.85;1.60;;;22.60;64.90;;;;;;5007173;28;20533;-80
2023/08/04 11:42:17;;;;;;;5.22;1.50;;;22.40;67.70;;;;;;5023074;28;20137;-79
2023/08/04 11:44:45;;;;;;;7.13;1.55;;;22.30;67.60;;;;;;5008086;28;20050;-79
2023/08/04 11:47:13;;;;;;;5.57;1.65;;;22.30;67.90;;;;;;5008788;28;20058;-79
2023/08/04 11:49:41;;;;;;;3.28;1.33;;;22.40;70.50;;;;;;5015386;28;20054;-80
2023/08/04 11:52:13;;;;;;;6.30;1.25;;;22.40;69.30;;;;;;5017607;28;20046;-80
2023/08/04 11:54:56;;;;;;;2.90;1.13;;;22.60;66.50;;;;;;5005509;28;20516;-80
2023/08/04 11:57:24;;;;;;;3.88;1.35;;;22.80;67.60;;;;;;5005087;28;20741;-79
2023/08/04 11:59:52;;;;;;;3.05;1.23;;;23.10;68.30;;;;;;5005919;28;20141;-79
2023/08/04 12:02:21;;;;;;;4.20;2.00;;;23.40;66.20;;;;;;5021990;28;20694;-79
2023/08/04 12:05:33;;;;;;;6.47;1.40;;;23.70;65.70;;;;;;5007066;28;20107;-81
2023/08/04 12:08:11;;;;;;;10.55;2.17;;;24.10;63.60;;;;;;4951237;28;20055;-83
2023/08/04 12:10:38;;;;;;;3.45;1.63;;;24.10;64.60;;;;;;5007586;28;20049;-80
2023/08/04 12:13:05;;;;;;;3.25;1.30;;;24.30;63.80;;;;;;5010225;28;20050;-82
2023/08/04 12:15:54;;;;;;;5.25;1.52;;;24.30;62.60;;;;;;5013257;28;20491;-82
2023/08/04 12:18:25;;;;;;;6.35;1.70;;;24.40;64.60;;;;;;5008218;28;20128;-81
2023/08/04 12:20:52;;;;;;;3.38;1.33;;;24.50;64.80;;;;;;5024740;28;20080;-88
2023/08/04 12:23:19;;;;;;;5.35;1.38;;;24.00;64.00;;;;;;5025645;28;20045;-90
2023/08/04 12:25:46;;;;;;;7.28;1.42;;;24.00;63.80;;;;;;5025807;28;20462;-87
2023/08/04 12:28:13;;;;;;;4.45;1.30;;;24.10;66.00;;;;;;5009469;28;20138;-87
2023/08/04 12:30:40;;;;;;;2.78;1.30;;;24.30;64.40;;;;;;5007501;28;20134;-82
2023/08/04 12:33:07;;;;;;;3.20;1.20;;;24.30;65.50;;;;;;5010624;28;20387;-82
2023/08/04 12:35:34;;;;;;;6.28;1.58;;;24.40;63.40;;;;;;5021704;28;20046;-83
2023/08/04 12:38:04;;;;;;;10.85;1.55;;;25.00;64.10;;;;;;5005244;28;20091;-82
2023/08/04 12:40:32;;;;;;;2.45;1.20;;;26.10;62.90;;;;;;5007708;28;20050;-82
2023/08/04 12:43:00;;;;;;;4.20;1.15;;;27.10;59.60;;;;;;5024322;28;20092;-83
2023/08/04 12:45:27;;;;;;;1.98;0.82;;;27.20;54.50;;;;;;4995515;28;20111;-82
2023/08/04 12:47:54;;;;;;;5.65;1.08;;;27.70;55.40;;;;;;4999411;28;20050;-81
2023/08/04 12:50:20;;;;;;;3.10;1.08;;;28.00;56.60;;;;;;4998827;28;20057;-82
2023/08/04 12:52:47;;;;;;;23.90;2.63;;;28.20;57.00;;;;;;5002807;28;20060;-79
2023/08/04 12:55:14;;;;;;;20.95;2.92;;;28.80;53.10;;;;;;5021850;28;20858;-78
2023/08/04 12:57:41;;;;;;;2.47;1.00;;;28.90;52.50;;;;;;5007363;28;20049;-79
2023/08/04 13:00:08;;;;;;;2.47;1.20;;;28.50;52.20;;;;;;5004811;28;20469;-77
2023/08/04 13:02:35;;;;;;;2.85;1.30;;;28.70;53.80;;;;;;5004468;28;20042;-77
2023/08/04 13:05:03;;;;;;;1.70;1.05;;;28.30;52.50;;;;;;5022111;28;20081;-78
2023/08/04 13:07:30;;;;;;;6.30;1.13;;;28.20;54.40;;;;;;5007948;28;20065;-79